Strona główna
METAR-TAF:

METAR-TAF

Lotnisko :

Bolton Field

Columbus, Ohio, Stany Zjednoczone

Szerokość geograficzna: 39-54-03N, Długość geograficzna: 083-08-14W, wysokość: 276 m

Aktualna obserwacja pogody

Raport powstał 29 minut temu, godzina 07:15 UTC
Wiatr 6 kt od północny zachód
Temperatura -9°C
Wilgotność 85%
Ciśnienie 1029 hPa
Widzialność: 16.1 km
Rozproszone chmury na wysokości 1600 ft
Zachmurzenie całkowite na wysokości 4300 ft

METAR: KTZR 200715Z AUTO 32006KT 10SM SCT016 OVC043 M09/M11 A3040 RMK AO2 T10911115

czas: 02:44 (07:44 UTC)


TAF: brakujący

Obserwacja i prognoza pogody dla ponad 4000 lotnisk (raport METAR i TAF).

Dostępne stacje oznaczono żółtymi i czerwonymi punktami na mapie.

Najedź kursorem aby zobaczyć nazwę stacji.

Kliknij aby zobaczyć obserwacje i prognozy pogody.

Aby zmienić mapę: kliknij na zielony przycisk z czarnym krzyżykiem, aby powiększyć; na zielony przycisk z myślnikiem, aby pomniejszyć; na zielone strzałki, aby przejść do map sąsiednich.


METAR-TAF: